Time;durP1;ratioP1;P1;durP2;ratioP2;P2;SDS_P1;SDS_P2;PMS_P1;PMS_P2;Temp;Humidity;BMP_temperature;BMP_pressure;BME280_temperature;BME280_humidity;BME280_pressure;Samples;Min_cycle;Max_cycle;Signal;HPM_P1;HPM_P2
2023/07/09 00:00:19;;;;;;;11.82;1.33;;;;;;;;;;4817310;29;20054;-75
2023/07/09 00:02:49;;;;;;;3.30;0.90;;;;;;;;;;4817599;29;20057;-75
2023/07/09 00:05:21;;;;;;;4.95;1.00;;;;;;;;;;4817273;29;20058;-75
2023/07/09 00:07:51;;;;;;;8.75;1.40;;;;;;;;;;4816933;29;20400;-75
2023/07/09 00:10:21;;;;;;;2.92;1.00;;;;;;;;;;4816468;29;20058;-75
2023/07/09 00:12:52;;;;;;;3.10;1.00;;;;;;;;;;4817104;29;20050;-76
2023/07/09 00:15:24;;;;;;;2.97;1.00;;;;;;;;;;4816640;29;20051;-75
2023/07/09 00:17:54;;;;;;;7.47;1.05;;;;;;;;;;4817453;29;20058;-75
2023/07/09 00:20:24;;;;;;;2.13;0.80;;;;;;;;;;4817221;29;20149;-75
2023/07/09 00:22:55;;;;;;;4.13;0.80;;;;;;;;;;4816533;29;20046;-75
2023/07/09 00:25:26;;;;;;;5.95;1.25;;;;;;;;;;4817039;29;20077;-75
2023/07/09 00:27:57;;;;;;;1.73;1.15;;;;;;;;;;4815927;29;20514;-75
2023/07/09 00:30:27;;;;;;;8.55;1.42;;;;;;;;;;4816967;29;20057;-75
2023/07/09 00:32:57;;;;;;;11.15;1.45;;;;;;;;;;4799643;29;20523;-75
2023/07/09 00:35:28;;;;;;;8.55;1.20;;;;;;;;;;4816482;29;20077;-75
2023/07/09 00:38:00;;;;;;;5.35;1.23;;;;;;;;;;4800871;29;20109;-74
2023/07/09 00:40:31;;;;;;;7.88;1.35;;;;;;;;;;4815868;29;20518;-75
2023/07/09 00:43:02;;;;;;;6.55;1.58;;;;;;;;;;4799285;29;20062;-75
2023/07/09 00:45:32;;;;;;;4.28;1.70;;;;;;;;;;4816887;29;20502;-75
2023/07/09 00:48:13;;;;;;;8.02;1.40;;;;;;;;;;4815547;29;20066;-75
2023/07/09 00:50:49;;;;;;;5.45;1.00;;;;;;;;;;4817025;29;20062;-75
2023/07/09 00:53:29;;;;;;;5.13;1.42;;;;;;;;;;4816204;29;20545;-75
2023/07/09 00:56:12;;;;;;;6.85;1.10;;;;;;;;;;4799591;29;20069;-75
2023/07/09 00:58:48;;;;;;;4.95;1.52;;;;;;;;;;4799870;29;20424;-75
2023/07/09 01:01:20;;;;;;;8.60;1.30;;;;;;;;;;4816373;29;20054;-75
2023/07/09 01:03:59;;;;;;;10.30;0.88;;;;;;;;;;4816273;29;20062;-74
2023/07/09 01:06:44;;;;;;;5.82;1.10;;;;;;;;;;4816060;29;20533;-76
2023/07/09 01:09:16;;;;;;;5.63;1.02;;;;;;;;;;4817010;29;20054;-76
2023/07/09 01:11:47;;;;;;;5.43;1.00;;;;;;;;;;4816218;29;20519;-75
2023/07/09 01:14:21;;;;;;;11.02;0.90;;;;;;;;;;4816403;29;20054;-75
2023/07/09 01:17:03;;;;;;;11.20;1.45;;;;;;;;;;4799423;29;20061;-76
2023/07/09 01:19:43;;;;;;;6.72;1.30;;;;;;;;;;4816589;29;20050;-75
2023/07/09 01:22:17;;;;;;;5.28;1.00;;;;;;;;;;4815600;29;20054;-76
2023/07/09 01:24:51;;;;;;;3.10;0.70;;;;;;;;;;4816827;29;20129;-74
2023/07/09 01:27:35;;;;;;;5.88;1.52;;;;;;;;;;4816046;29;20426;-76
2023/07/09 01:30:14;;;;;;;1.52;0.80;;;;;;;;;;4798998;29;20073;-75
2023/07/09 01:32:45;;;;;;;3.45;1.00;;;;;;;;;;4815228;29;20051;-75
2023/07/09 01:35:19;;;;;;;4.30;1.30;;;;;;;;;;4798080;29;20541;-76
2023/07/09 01:37:50;;;;;;;2.60;0.93;;;;;;;;;;4798625;29;20408;-75
2023/07/09 01:40:23;;;;;;;3.30;1.15;;;;;;;;;;4815564;29;20441;-74
2023/07/09 01:43:05;;;;;;;4.70;0.77;;;;;;;;;;4815398;29;20054;-74
2023/07/09 01:45:37;;;;;;;6.82;1.05;;;;;;;;;;4798633;29;20062;-76
2023/07/09 01:48:14;;;;;;;5.50;0.70;;;;;;;;;;4798943;29;20430;-76
2023/07/09 01:50:49;;;;;;;3.75;0.93;;;;;;;;;;4815996;29;20058;-74
2023/07/09 01:53:26;;;;;;;4.65;1.65;;;;;;;;;;4815508;29;20054;-74
2023/07/09 01:55:57;;;;;;;4.38;0.90;;;;;;;;;;4815542;29;20078;-74
2023/07/09 01:58:30;;;;;;;3.35;0.82;;;;;;;;;;4799578;29;20058;-74
2023/07/09 02:01:02;;;;;;;4.00;1.02;;;;;;;;;;4798929;29;20070;-74
2023/07/09 02:03:34;;;;;;;7.72;0.90;;;;;;;;;;4815811;29;20047;-74
2023/07/09 02:06:09;;;;;;;5.40;0.88;;;;;;;;;;4799225;29;20073;-74
2023/07/09 02:08:39;;;;;;;19.70;1.95;;;;;;;;;;4799160;29;20054;-74
2023/07/09 02:11:10;;;;;;;4.95;0.90;;;;;;;;;;4799187;29;20061;-74
2023/07/09 02:13:40;;;;;;;7.68;0.95;;;;;;;;;;4799171;29;20058;-74
2023/07/09 02:16:10;;;;;;;4.05;0.95;;;;;;;;;;4815944;29;20494;-74
2023/07/09 02:18:41;;;;;;;4.13;0.80;;;;;;;;;;4815113;29;20050;-75
2023/07/09 02:21:12;;;;;;;2.70;0.70;;;;;;;;;;4815684;29;20051;-75
2023/07/09 02:23:42;;;;;;;2.60;0.60;;;;;;;;;;4814660;29;20081;-74
2023/07/09 02:26:12;;;;;;;2.47;0.85;;;;;;;;;;4815812;29;20054;-74
2023/07/09 02:28:43;;;;;;;6.10;0.93;;;;;;;;;;4815918;29;20061;-74
2023/07/09 02:31:15;;;;;;;11.27;0.93;;;;;;;;;;4815469;29;20055;-74
2023/07/09 02:33:46;;;;;;;6.07;0.93;;;;;;;;;;4798935;29;20397;-74
2023/07/09 02:36:16;;;;;;;4.30;0.75;;;;;;;;;;4815139;29;20050;-74
2023/07/09 02:38:48;;;;;;;6.70;1.05;;;;;;;;;;4798597;29;20058;-73
2023/07/09 02:41:18;;;;;;;6.13;0.88;;;;;;;;;;4815466;29;20069;-74
2023/07/09 02:43:49;;;;;;;5.43;0.90;;;;;;;;;;4798837;29;20054;-74
2023/07/09 02:46:20;;;;;;;3.33;0.80;;;;;;;;;;4798314;29;20880;-74
2023/07/09 02:48:50;;;;;;;2.92;0.85;;;;;;;;;;4798614;29;20062;-73
2023/07/09 02:51:24;;;;;;;5.65;0.77;;;;;;;;;;4816390;29;20061;-75
2023/07/09 02:53:56;;;;;;;5.68;0.80;;;;;;;;;;4818629;29;20054;-74
2023/07/09 02:56:27;;;;;;;2.53;0.85;;;;;;;;;;4801753;29;20069;-73
2023/07/09 02:58:59;;;;;;;2.95;0.63;;;;;;;;;;4801304;29;20073;-74
2023/07/09 03:01:32;;;;;;;3.80;0.80;;;;;;;;;;4802563;29;20058;-73
2023/07/09 03:04:03;;;;;;;3.65;0.80;;;;;;;;;;4801298;29;20073;-75
2023/07/09 03:06:36;;;;;;;3.97;0.70;;;;;;;;;;4801624;29;20065;-73
2023/07/09 03:09:07;;;;;;;3.70;0.88;;;;;;;;;;4818011;29;20133;-74
2023/07/09 03:11:38;;;;;;;5.43;0.95;;;;;;;;;;4801462;29;20086;-74
2023/07/09 03:14:09;;;;;;;3.50;0.80;;;;;;;;;;4798936;29;20061;-74
2023/07/09 03:16:39;;;;;;;4.10;0.85;;;;;;;;;;4815514;29;20062;-73
2023/07/09 03:19:13;;;;;;;3.55;1.15;;;;;;;;;;4815271;29;20058;-73
2023/07/09 03:21:44;;;;;;;8.48;0.95;;;;;;;;;;4798579;29;20069;-73
2023/07/09 03:24:18;;;;;;;12.75;1.00;;;;;;;;;;4814702;29;20066;-73
2023/07/09 03:26:48;;;;;;;6.00;1.23;;;;;;;;;;4798196;29;20059;-73
2023/07/09 03:29:19;;;;;;;2.47;1.00;;;;;;;;;;4784298;29;20176;-74
2023/07/09 03:31:50;;;;;;;4.40;0.82;;;;;;;;;;4815028;29;20055;-74
2023/07/09 03:34:20;;;;;;;3.58;0.70;;;;;;;;;;4815005;29;20054;-73
2023/07/09 03:36:50;;;;;;;6.43;0.90;;;;;;;;;;4814646;29;20061;-74
2023/07/09 03:39:21;;;;;;;5.07;0.80;;;;;;;;;;4814866;29;20619;-73
2023/07/09 03:41:51;;;;;;;4.40;0.90;;;;;;;;;;4815048;29;20061;-73
2023/07/09 03:44:21;;;;;;;4.82;0.75;;;;;;;;;;4815175;29;20055;-74
2023/07/09 03:46:51;;;;;;;;;;;;;;;;;;4814493;29;20069;-74
2023/07/09 03:49:22;;;;;;;2.65;1.00;;;;;;;;;;4814747;29;19935;-74
2023/07/09 03:51:53;;;;;;;4.65;0.95;;;;;;;;;;4814556;29;20399;-74
2023/07/09 03:54:24;;;;;;;4.82;1.08;;;;;;;;;;4814645;29;20050;-74
2023/07/09 03:56:55;;;;;;;7.90;1.38;;;;;;;;;;4798614;29;20063;-74
2023/07/09 03:59:26;;;;;;;10.90;1.30;;;;;;;;;;4814277;29;20058;-74
2023/07/09 04:01:57;;;;;;;2.60;1.35;;;;;;;;;;4815146;29;20065;-74
2023/07/09 04:04:27;;;;;;;2.03;0.82;;;;;;;;;;4814426;29;20054;-74
2023/07/09 04:06:56;;;;;;;;;;;;;;;;;;4814848;29;20081;-74
2023/07/09 04:09:26;;;;;;;2.28;0.82;;;;;;;;;;4814410;29;20439;-73
2023/07/09 04:11:57;;;;;;;3.63;1.00;;;;;;;;;;4797423;29;20058;-73
2023/07/09 04:14:28;;;;;;;3.97;1.00;;;;;;;;;;4814442;29;20051;-74
2023/07/09 04:16:58;;;;;;;6.20;1.00;;;;;;;;;;4813806;29;20414;-74
2023/07/09 04:19:28;;;;;;;;;;;;;;;;;;4814031;29;20062;-75
2023/07/09 04:21:58;;;;;;;2.75;0.90;;;;;;;;;;4814360;29;19939;-73
2023/07/09 04:24:28;;;;;;;2.92;1.00;;;;;;;;;;4814081;29;20134;-73
2023/07/09 04:27:02;;;;;;;1.65;0.90;;;;;;;;;;4797329;29;20054;-73
2023/07/09 04:29:35;;;;;;;3.80;0.70;;;;;;;;;;4798436;29;20062;-73
2023/07/09 04:32:07;;;;;;;2.10;0.73;;;;;;;;;;4814315;29;20061;-73
2023/07/09 04:34:41;;;;;;;4.90;0.63;;;;;;;;;;4814185;29;20058;-73
2023/07/09 04:37:12;;;;;;;2.83;0.80;;;;;;;;;;4814420;29;20055;-73
2023/07/09 04:39:44;;;;;;;4.25;0.60;;;;;;;;;;4814227;29;20054;-73
2023/07/09 04:42:16;;;;;;;4.18;1.02;;;;;;;;;;4814178;29;20534;-73
2023/07/09 04:44:47;;;;;;;7.53;0.80;;;;;;;;;;4814620;29;20093;-74
2023/07/09 04:47:17;;;;;;;1.70;0.70;;;;;;;;;;4797876;29;20454;-73
2023/07/09 04:49:48;;;;;;;3.17;0.60;;;;;;;;;;4814371;29;20058;-73
2023/07/09 04:52:18;;;;;;;;;;;;;;;;;;4814332;29;20522;-74
2023/07/09 04:54:50;;;;;;;3.65;0.82;;;;;;;;;;4814080;29;19928;-74
2023/07/09 04:57:20;;;;;;;3.65;0.55;;;;;;;;;;4813894;29;20070;-73
2023/07/09 04:59:50;;;;;;;6.32;1.02;;;;;;;;;;4813636;29;20074;-74
2023/07/09 05:02:21;;;;;;;1.70;0.80;;;;;;;;;;4813705;29;20050;-74
2023/07/09 05:04:52;;;;;;;4.00;0.80;;;;;;;;;;4797276;29;20050;-74
2023/07/09 05:07:23;;;;;;;6.78;0.93;;;;;;;;;;4813567;29;20529;-73
2023/07/09 05:09:54;;;;;;;4.15;0.88;;;;;;;;;;4797904;29;20058;-74
2023/07/09 05:12:27;;;;;;;1.80;0.70;;;;;;;;;;4813476;29;20050;-74
2023/07/09 05:14:57;;;;;;;7.28;1.17;;;;;;;;;;4812895;29;20056;-74
2023/07/09 05:17:28;;;;;;;1.20;0.80;;;;;;;;;;4813630;29;20051;-73
2023/07/09 05:19:59;;;;;;;1.25;0.63;;;;;;;;;;4813486;29;20042;-74
2023/07/09 05:22:29;;;;;;;2.25;0.75;;;;;;;;;;4813714;29;20065;-73
2023/07/09 05:24:59;;;;;;;5.18;0.82;;;;;;;;;;4815292;29;20074;-73
2023/07/09 05:27:28;;;;;;;;;;;;;;;;;;4816393;29;20062;-74
2023/07/09 05:30:00;;;;;;;2.00;0.57;;;;;;;;;;4816468;29;19933;-74
2023/07/09 05:32:32;;;;;;;0.57;0.52;;;;;;;;;;4815712;29;20054;-73
2023/07/09 05:35:02;;;;;;;5.07;0.52;;;;;;;;;;4815488;29;20058;-74
2023/07/09 05:37:33;;;;;;;1.80;0.65;;;;;;;;;;4815728;29;20537;-73
2023/07/09 05:40:05;;;;;;;;;;;;;;;;;;4816643;29;20073;-73
2023/07/09 05:42:35;;;;;;;1.10;0.52;;;;;;;;;;4816769;29;20439;-74
2023/07/09 05:45:06;;;;;;;2.38;0.70;;;;;;;;;;4816141;29;20050;-73
2023/07/09 05:47:37;;;;;;;3.85;0.95;;;;;;;;;;4815811;29;20054;-73
2023/07/09 05:50:09;;;;;;;0.82;0.55;;;;;;;;;;4815691;29;20058;-74
2023/07/09 05:52:40;;;;;;;2.22;0.63;;;;;;;;;;4816321;29;20054;-73
2023/07/09 05:55:11;;;;;;;2.85;0.77;;;;;;;;;;4816273;29;20481;-73
2023/07/09 05:57:40;;;;;;;3.17;0.63;;;;;;;;;;4815836;29;20056;-73
2023/07/09 06:00:12;;;;;;;4.90;0.90;;;;;;;;;;4815741;29;20054;-73
2023/07/09 06:02:43;;;;;;;3.85;0.80;;;;;;;;;;4815399;29;20523;-73
2023/07/09 06:05:14;;;;;;;1.15;0.70;;;;;;;;;;4815860;29;20058;-73
2023/07/09 06:07:45;;;;;;;1.90;0.70;;;;;;;;;;4815814;29;20529;-75
2023/07/09 06:10:17;;;;;;;2.90;0.90;;;;;;;;;;4815843;29;20047;-75
2023/07/09 06:12:48;;;;;;;2.92;0.82;;;;;;;;;;4798966;29;20069;-74
2023/07/09 06:15:19;;;;;;;3.63;0.93;;;;;;;;;;4816077;29;20054;-75
2023/07/09 06:17:49;;;;;;;1.95;0.85;;;;;;;;;;4815500;29;20422;-74
2023/07/09 06:20:21;;;;;;;1.35;0.57;;;;;;;;;;4815372;29;20058;-75
2023/07/09 06:22:51;;;;;;;5.28;0.80;;;;;;;;;;4815284;29;20054;-75
2023/07/09 06:25:21;;;;;;;2.50;0.60;;;;;;;;;;4816202;29;20062;-75
2023/07/09 06:27:52;;;;;;;1.95;0.80;;;;;;;;;;4818295;29;20057;-74
2023/07/09 06:30:22;;;;;;;1.55;0.65;;;;;;;;;;4818848;29;20043;-75
2023/07/09 06:32:55;;;;;;;1.70;0.90;;;;;;;;;;4818793;29;20435;-75
2023/07/09 06:35:25;;;;;;;22.10;1.55;;;;;;;;;;4818892;29;21189;-74
2023/07/09 06:37:55;;;;;;;5.40;0.80;;;;;;;;;;4818432;29;20058;-75
2023/07/09 06:40:26;;;;;;;5.70;1.17;;;;;;;;;;4818814;29;20057;-75
2023/07/09 06:42:57;;;;;;;;;;;;;;;;;;4803093;29;20064;-75
2023/07/09 06:45:34;;;;;;;6.03;1.20;;;;;;;;;;4801915;29;19928;-75
2023/07/09 06:48:05;;;;;;;8.38;1.25;;;;;;;;;;4818850;29;20530;-75
2023/07/09 06:50:36;;;;;;;2.85;0.80;;;;;;;;;;4817387;29;20081;-75
2023/07/09 06:53:09;;;;;;;3.22;1.50;;;;;;;;;;4818297;29;20065;-74
2023/07/09 06:55:40;;;;;;;4.57;1.27;;;;;;;;;;4818488;29;20046;-75
2023/07/09 06:58:10;;;;;;;4.35;0.65;;;;;;;;;;4817809;29;20067;-74
2023/07/09 07:00:42;;;;;;;6.47;0.90;;;;;;;;;;4818372;29;20050;-74
2023/07/09 07:03:13;;;;;;;2.00;0.75;;;;;;;;;;4818334;29;20049;-74
2023/07/09 07:05:45;;;;;;;2.95;0.90;;;;;;;;;;4818566;29;20495;-74
2023/07/09 07:08:18;;;;;;;4.45;0.90;;;;;;;;;;4817046;29;20069;-74
2023/07/09 07:10:49;;;;;;;4.40;0.80;;;;;;;;;;4818494;29;20055;-75
2023/07/09 07:13:20;;;;;;;1.20;0.85;;;;;;;;;;4817971;29;20388;-74
2023/07/09 07:15:51;;;;;;;3.42;1.05;;;;;;;;;;4817925;29;20062;-74
2023/07/09 07:18:21;;;;;;;1.63;0.80;;;;;;;;;;4817644;29;20055;-75
2023/07/09 07:20:51;;;;;;;3.88;0.70;;;;;;;;;;4818147;29;20078;-75
2023/07/09 07:23:20;;;;;;;;;;;;;;;;;;4818154;29;20061;-75
2023/07/09 07:25:54;;;;;;;2.63;0.73;;;;;;;;;;4817887;29;19952;-75
2023/07/09 07:28:24;;;;;;;4.82;0.90;;;;;;;;;;4817914;29;20054;-75
2023/07/09 07:31:05;;;;;;;2.72;0.88;;;;;;;;;;4818241;29;20062;-75
2023/07/09 07:33:40;;;;;;;5.15;1.10;;;;;;;;;;4818104;29;20057;-75
2023/07/09 07:36:12;;;;;;;3.45;1.08;;;;;;;;;;4817510;29;20062;-75
2023/07/09 07:38:59;;;;;;;5.72;0.80;;;;;;;;;;4800502;29;20066;-74
2023/07/09 07:41:29;;;;;;;6.35;1.00;;;;;;;;;;4817681;29;20149;-75
2023/07/09 07:43:59;;;;;;;2.85;0.98;;;;;;;;;;4801015;29;20069;-74
2023/07/09 07:46:32;;;;;;;3.00;1.00;;;;;;;;;;4817925;29;20046;-75
2023/07/09 07:49:03;;;;;;;2.47;1.00;;;;;;;;;;4817925;29;20392;-75
2023/07/09 07:51:33;;;;;;;9.48;1.30;;;;;;;;;;4800934;29;20054;-75
2023/07/09 07:54:05;;;;;;;3.78;1.10;;;;;;;;;;4817880;29;20069;-75
2023/07/09 07:56:34;;;;;;;3.38;1.25;;;;;;;;;;4817777;29;20395;-74
2023/07/09 07:59:08;;;;;;;5.38;1.10;;;;;;;;;;4816944;29;20057;-75
2023/07/09 08:01:40;;;;;;;6.22;1.13;;;;;;;;;;4817543;29;20061;-74
2023/07/09 08:04:10;;;;;;;7.63;1.20;;;;;;;;;;4817197;29;20054;-74
2023/07/09 08:06:40;;;;;;;2.63;1.00;;;;;;;;;;4817533;29;20052;-74
2023/07/09 08:09:11;;;;;;;5.18;1.23;;;;;;;;;;4817822;29;20053;-75
2023/07/09 08:11:41;;;;;;;;;;;;;;;;;;4817543;29;20521;-74
2023/07/09 08:14:11;;;;;;;1.00;0.80;;;;;;;;;;4817066;29;19936;-75
2023/07/09 08:16:43;;;;;;;4.30;1.20;;;;;;;;;;4816730;29;20050;-75
2023/07/09 08:19:13;;;;;;;1.88;1.00;;;;;;;;;;4817125;29;20058;-75
2023/07/09 08:21:43;;;;;;;1.70;0.93;;;;;;;;;;4816915;29;20042;-74
2023/07/09 08:24:14;;;;;;;2.95;1.02;;;;;;;;;;4816505;29;20062;-74
2023/07/09 08:26:51;;;;;;;3.33;1.00;;;;;;;;;;4817486;29;20046;-74
2023/07/09 08:29:21;;;;;;;2.92;0.90;;;;;;;;;;4816848;29;20054;-74
2023/07/09 08:31:52;;;;;;;5.18;1.20;;;;;;;;;;4816829;29;20534;-74
2023/07/09 08:34:22;;;;;;;3.00;1.00;;;;;;;;;;4816687;29;20057;-74
2023/07/09 08:36:53;;;;;;;3.63;1.45;;;;;;;;;;4816683;29;20059;-74
2023/07/09 08:39:25;;;;;;;2.65;1.40;;;;;;;;;;4817175;29;20053;-75
2023/07/09 08:42:07;;;;;;;4.40;1.65;;;;;;;;;;4816951;29;20089;-74
2023/07/09 08:44:52;;;;;;;4.57;1.15;;;;;;;;;;4816781;29;20077;-74
2023/07/09 08:47:23;;;;;;;5.72;1.17;;;;;;;;;;4816372;29;20054;-74
2023/07/09 08:49:56;;;;;;;3.65;1.50;;;;;;;;;;4815721;29;20065;-74
2023/07/09 08:52:31;;;;;;;4.82;1.60;;;;;;;;;;4799803;29;20050;-74
2023/07/09 08:55:17;;;;;;;3.45;1.20;;;;;;;;;;4816769;29;20050;-74
2023/07/09 08:58:04;;;;;;;6.32;1.13;;;;;;;;;;4816825;29;20054;-74
2023/07/09 09:00:55;;;;;;;6.40;1.65;;;;;;;;;;4816824;29;20050;-74
2023/07/09 09:03:38;;;;;;;5.43;1.40;;;;;;;;;;4816275;29;20515;-74
2023/07/09 09:06:36;;;;;;;2.05;1.40;;;;;;;;;;4816334;29;20050;-75
2023/07/09 09:09:30;;;;;;;4.85;1.27;;;;;;;;;;4816229;29;20407;-74
2023/07/09 09:12:08;;;;;;;;;;;;;;;;;;4816737;29;20073;-74
2023/07/09 09:14:41;;;;;;;3.40;1.00;;;;;;;;;;4816538;29;19935;-74
2023/07/09 09:17:18;;;;;;;1.48;1.08;;;;;;;;;;4816472;29;20052;-74
2023/07/09 09:19:55;;;;;;;2.15;1.33;;;;;;;;;;4816401;29;20914;-75
2023/07/09 09:22:30;;;;;;;1.17;0.90;;;;;;;;;;4815946;29;20050;-75
2023/07/09 09:25:28;;;;;;;1.70;0.85;;;;;;;;;;4799000;29;20069;-75
2023/07/09 09:28:00;;;;;;;2.53;1.08;;;;;;;;;;4811704;29;20063;-75
2023/07/09 09:30:32;;;;;;;2.85;1.15;;;;;;;;;;4799826;29;20062;-74
2023/07/09 09:33:07;;;;;;;3.03;0.93;;;;;;;;;;4816269;29;20061;-75
2023/07/09 09:35:44;;;;;;;3.10;1.20;;;;;;;;;;4816348;29;20066;-75
2023/07/09 09:38:20;;;;;;;1.25;0.88;;;;;;;;;;4815872;29;20062;-75
2023/07/09 09:40:50;;;;;;;3.53;1.10;;;;;;;;;;4815836;29;20514;-75
2023/07/09 09:43:23;;;;;;;;;;;;;;;;;;4816018;29;20050;-74
2023/07/09 09:45:54;;;;;;;2.50;0.90;;;;;;;;;;4815850;29;20313;-74
2023/07/09 09:48:31;;;;;;;3.25;1.13;;;;;;;;;;4816095;29;20050;-74
2023/07/09 09:51:05;;;;;;;4.25;1.30;;;;;;;;;;4815951;29;20050;-75
2023/07/09 09:53:41;;;;;;;1.90;1.20;;;;;;;;;;4815462;29;20069;-74
2023/07/09 09:56:18;;;;;;;;;;;;;;;;;;4816236;29;20534;-75
2023/07/09 09:58:54;;;;;;;2.67;0.85;;;;;;;;;;4815927;29;19936;-75
2023/07/09 10:01:31;;;;;;;1.33;1.10;;;;;;;;;;4818224;29;20046;-74
2023/07/09 10:04:04;;;;;;;3.95;1.13;;;;;;;;;;4821217;29;20061;-74
2023/07/09 10:06:39;;;;;;;4.40;0.88;;;;;;;;;;4838102;29;20422;-74
2023/07/09 10:09:54;;;;;;;2.60;0.88;;;;;;;;;;4837386;29;20054;-74
2023/07/09 10:12:38;;;;;;;2.30;0.63;;;;;;;;;;4837002;29;20054;-74
2023/07/09 10:15:18;;;;;;;1.35;0.90;;;;;;;;;;4837659;29;20045;-73
2023/07/09 10:17:57;;;;;;;0.80;0.75;;;;;;;;;;4837856;29;20069;-74
2023/07/09 10:20:33;;;;;;;0.80;0.80;;;;;;;;;;4838003;29;20527;-72
2023/07/09 10:23:15;;;;;;;1.38;1.00;;;;;;;;;;4837213;29;20491;-73
2023/07/09 10:25:55;;;;;;;6.20;0.90;;;;;;;;;;4837391;29;20050;-75
2023/07/09 10:28:33;;;;;;;1.45;0.90;;;;;;;;;;4836871;29;20054;-73
2023/07/09 10:31:33;;;;;;;1.33;0.80;;;;;;;;;;4837263;29;20054;-73
2023/07/09 10:34:27;;;;;;;0.82;0.60;;;;;;;;;;4815407;29;20054;-73
2023/07/09 10:37:34;;;;;;;1.10;0.75;;;;;;;;;;4837258;29;20050;-73
2023/07/09 10:40:10;;;;;;;0.93;0.77;;;;;;;;;;4837348;29;20058;-74
2023/07/09 10:42:46;;;;;;;5.38;0.98;;;;;;;;;;4836666;29;20406;-74
2023/07/09 10:45:34;;;;;;;1.40;0.80;;;;;;;;;;4836789;29;20525;-73
2023/07/09 10:48:14;;;;;;;0.75;0.73;;;;;;;;;;4836295;29;20550;-73
2023/07/09 10:50:49;;;;;;;1.33;0.68;;;;;;;;;;4836886;29;20061;-74
2023/07/09 10:54:00;;;;;;;5.57;0.70;;;;;;;;;;4837413;29;20518;-73
2023/07/09 10:56:37;;;;;;;2.10;1.02;;;;;;;;;;4836833;29;20537;-74
2023/07/09 10:59:30;;;;;;;2.47;1.33;;;;;;;;;;4836910;29;20065;-75
2023/07/09 11:02:26;;;;;;;2.00;1.48;;;;;;;;;;4836395;29;20054;-75
2023/07/09 11:05:03;;;;;;;5.05;1.20;;;;;;;;;;4820115;29;20434;-74
2023/07/09 11:07:36;;;;;;;2.03;1.30;;;;;;;;;;4836692;29;20359;-74
2023/07/09 11:10:14;;;;;;;3.55;1.00;;;;;;;;;;4836476;29;20069;-74
2023/07/09 11:12:52;;;;;;;35.88;2.05;;;;;;;;;;4835691;29;20061;-75
2023/07/09 11:15:31;;;;;;;40.50;1.75;;;;;;;;;;4819977;29;20161;-75
2023/07/09 11:18:06;;;;;;;34.10;2.20;;;;;;;;;;4836685;29;20402;-74
2023/07/09 11:20:44;;;;;;;9.77;1.30;;;;;;;;;;4836818;29;20042;-75
2023/07/09 11:23:20;;;;;;;2.88;1.48;;;;;;;;;;4818390;29;20054;-74
2023/07/09 11:26:15;;;;;;;34.55;1.42;;;;;;;;;;4837124;29;20041;-74
2023/07/09 11:28:51;;;;;;;11.07;1.00;;;;;;;;;;4819964;29;20034;-75
2023/07/09 11:31:21;;;;;;;30.75;1.60;;;;;;;;;;4836322;29;20054;-74
2023/07/09 11:34:31;;;;;;;6.43;2.05;;;;;;;;;;4835847;29;20048;-75
2023/07/09 11:37:02;;;;;;;17.50;1.63;;;;;;;;;;4826814;29;20066;-74
2023/07/09 11:39:38;;;;;;;27.50;1.83;;;;;;;;;;4820352;29;20382;-74
2023/07/09 11:42:25;;;;;;;33.85;1.42;;;;;;;;;;4836031;29;20072;-74
2023/07/09 11:45:12;;;;;;;16.90;1.30;;;;;;;;;;4836061;29;20521;-74
2023/07/09 11:47:45;;;;;;;22.98;1.40;;;;;;;;;;4836384;29;20050;-74
2023/07/09 11:50:31;;;;;;;13.50;0.95;;;;;;;;;;4835763;29;20057;-74
2023/07/09 11:53:16;;;;;;;26.63;1.15;;;;;;;;;;4836081;29;20057;-73
2023/07/09 11:55:47;;;;;;;20.45;1.70;;;;;;;;;;4836580;29;20058;-74
2023/07/09 11:58:20;;;;;;;5.13;1.40;;;;;;;;;;4836060;29;20050;-74
2023/07/09 12:00:54;;;;;;;10.73;1.33;;;;;;;;;;4836654;29;20054;-75
2023/07/09 12:03:36;;;;;;;4.75;0.90;;;;;;;;;;4835547;29;20060;-74
2023/07/09 12:06:28;;;;;;;19.98;1.25;;;;;;;;;;4835186;29;20085;-75
2023/07/09 12:08:59;;;;;;;10.88;1.63;;;;;;;;;;4835352;29;20426;-75
2023/07/09 12:11:34;;;;;;;12.80;1.58;;;;;;;;;;4835570;29;20065;-74
2023/07/09 12:14:10;;;;;;;3.95;1.08;;;;;;;;;;4835498;29;20513;-74
2023/07/09 12:16:45;;;;;;;2.50;1.23;;;;;;;;;;4835654;29;20050;-76
2023/07/09 12:19:19;;;;;;;3.85;1.20;;;;;;;;;;4835061;29;20053;-74
2023/07/09 12:21:56;;;;;;;3.33;1.60;;;;;;;;;;4835048;29;20541;-75
2023/07/09 12:24:31;;;;;;;5.25;1.92;;;;;;;;;;4835143;29;20058;-74
2023/07/09 12:27:03;;;;;;;4.65;2.22;;;;;;;;;;4834519;29;20061;-74
2023/07/09 12:29:37;;;;;;;5.28;2.00;;;;;;;;;;4834935;29;20054;-74
2023/07/09 12:32:16;;;;;;;7.38;1.90;;;;;;;;;;4835460;29;20061;-73
2023/07/09 12:34:52;;;;;;;5.53;2.00;;;;;;;;;;4834980;29;20518;-74
2023/07/09 12:37:32;;;;;;;3.90;1.92;;;;;;;;;;4834554;29;20061;-74
2023/07/09 12:40:02;;;;;;;3.97;1.75;;;;;;;;;;4817962;29;20058;-75
2023/07/09 12:42:37;;;;;;;5.10;2.78;;;;;;;;;;4834394;29;20054;-74
2023/07/09 12:45:16;;;;;;;5.63;2.00;;;;;;;;;;4835317;29;20066;-78
2023/07/09 12:47:48;;;;;;;5.13;2.40;;;;;;;;;;4835387;29;20054;-73
2023/07/09 12:50:33;;;;;;;2.88;2.03;;;;;;;;;;4834884;29;20058;-74
2023/07/09 12:53:23;;;;;;;2.65;1.70;;;;;;;;;;4834597;29;20081;-75
2023/07/09 12:56:00;;;;;;;2.95;1.90;;;;;;;;;;4834869;29;20057;-74
2023/07/09 12:58:36;;;;;;;2.33;1.42;;;;;;;;;;4834799;29;20525;-75
2023/07/09 13:01:14;;;;;;;2.80;1.42;;;;;;;;;;4834642;29;20054;-75
2023/07/09 13:03:56;;;;;;;5.10;1.27;;;;;;;;;;4835443;29;20507;-73
2023/07/09 13:06:35;;;;;;;4.25;1.75;;;;;;;;;;4835112;29;20049;-75
2023/07/09 13:09:17;;;;;;;4.50;1.60;;;;;;;;;;4834385;29;20050;-78
2023/07/09 13:11:48;;;;;;;4.72;1.50;;;;;;;;;;4817503;29;20366;-76
2023/07/09 13:14:24;;;;;;;1.83;1.45;;;;;;;;;;4834912;29;20046;-78
2023/07/09 13:17:07;;;;;;;3.30;1.65;;;;;;;;;;4834545;29;20192;-76
2023/07/09 13:19:37;;;;;;;3.03;1.52;;;;;;;;;;4817326;29;20049;-75
2023/07/09 13:22:12;;;;;;;3.63;1.75;;;;;;;;;;4834277;29;20533;-76
2023/07/09 13:24:43;;;;;;;4.10;1.73;;;;;;;;;;4834294;29;20062;-75
2023/07/09 13:27:16;;;;;;;3.15;1.92;;;;;;;;;;4834550;29;20054;-75
2023/07/09 13:29:46;;;;;;;4.55;1.95;;;;;;;;;;4834627;29;20910;-75
2023/07/09 13:32:17;;;;;;;9.10;2.10;;;;;;;;;;4834219;29;20049;-75
2023/07/09 13:34:48;;;;;;;3.28;1.88;;;;;;;;;;4834371;29;20058;-75
2023/07/09 13:37:19;;;;;;;3.78;1.67;;;;;;;;;;4834432;29;20053;-76
2023/07/09 13:39:50;;;;;;;3.65;1.58;;;;;;;;;;4834623;29;20057;-75
2023/07/09 13:42:23;;;;;;;5.22;1.60;;;;;;;;;;4817266;29;20565;-75
2023/07/09 13:44:55;;;;;;;2.50;1.20;;;;;;;;;;4833909;29;20066;-75
2023/07/09 13:47:26;;;;;;;1.95;1.13;;;;;;;;;;4834404;29;20053;-76
2023/07/09 13:49:56;;;;;;;3.90;1.20;;;;;;;;;;4834488;29;20060;-75
2023/07/09 13:52:29;;;;;;;1.63;1.33;;;;;;;;;;4834113;29;20064;-75
2023/07/09 13:54:59;;;;;;;4.13;1.42;;;;;;;;;;4834100;29;20058;-76
2023/07/09 13:57:31;;;;;;;3.50;1.52;;;;;;;;;;4834057;29;20057;-75
2023/07/09 14:00:02;;;;;;;2.92;1.88;;;;;;;;;;4834463;29;20066;-76
2023/07/09 14:02:32;;;;;;;3.17;2.00;;;;;;;;;;4838484;29;20560;-75
2023/07/09 14:05:07;;;;;;;2.63;1.85;;;;;;;;;;4817957;29;20054;-76
2023/07/09 14:07:41;;;;;;;6.05;2.20;;;;;;;;;;4834371;29;20061;-76
2023/07/09 14:10:17;;;;;;;4.50;1.55;;;;;;;;;;4817986;29;20050;-75
2023/07/09 14:12:48;;;;;;;3.33;1.80;;;;;;;;;;4834262;29;20062;-76
2023/07/09 14:15:21;;;;;;;4.03;1.58;;;;;;;;;;4833937;29;20054;-75
2023/07/09 14:17:52;;;;;;;1.92;1.25;;;;;;;;;;4833690;29;20050;-75
2023/07/09 14:20:23;;;;;;;4.32;1.50;;;;;;;;;;4833939;29;20529;-76
2023/07/09 14:22:55;;;;;;;3.75;1.83;;;;;;;;;;4834875;29;20058;-75
2023/07/09 14:25:28;;;;;;;3.28;1.75;;;;;;;;;;4833725;29;20066;-76
2023/07/09 14:27:59;;;;;;;7.05;2.10;;;;;;;;;;4817881;29;20054;-77
2023/07/09 14:30:29;;;;;;;6.18;1.60;;;;;;;;;;4833698;29;20050;-75
2023/07/09 14:33:00;;;;;;;2.20;1.63;;;;;;;;;;4832924;29;20061;-76
2023/07/09 14:35:31;;;;;;;4.60;2.47;;;;;;;;;;4834395;29;20050;-80
2023/07/09 14:38:05;;;;;;;7.80;2.92;;;;;;;;;;4833056;29;20418;-75
2023/07/09 14:40:36;;;;;;;3.30;2.03;;;;;;;;;;4829671;29;20046;-75
2023/07/09 14:43:10;;;;;;;4.05;2.25;;;;;;;;;;4832374;29;20058;-75
2023/07/09 14:45:41;;;;;;;3.97;2.40;;;;;;;;;;4833350;29;20125;-75
2023/07/09 14:48:15;;;;;;;5.05;3.08;;;;;;;;;;4836606;29;20510;-76
2023/07/09 14:50:47;;;;;;;3.88;2.50;;;;;;;;;;4837714;29;20049;-75
2023/07/09 14:53:26;;;;;;;7.30;2.63;;;;;;;;;;4819672;29;20053;-75
2023/07/09 14:55:56;;;;;;;8.38;2.72;;;;;;;;;;4836287;29;20054;-75
2023/07/09 14:58:27;;;;;;;4.43;3.00;;;;;;;;;;4819671;29;20054;-75
2023/07/09 15:00:58;;;;;;;5.00;3.25;;;;;;;;;;4836351;29;20050;-76
2023/07/09 15:03:30;;;;;;;7.82;2.63;;;;;;;;;;4836972;29;20045;-75
2023/07/09 15:06:02;;;;;;;4.10;3.35;;;;;;;;;;4836814;29;20501;-74
2023/07/09 15:08:33;;;;;;;4.35;3.00;;;;;;;;;;4820364;29;20062;-75
2023/07/09 15:11:03;;;;;;;6.05;3.90;;;;;;;;;;4837037;29;20054;-74
2023/07/09 15:13:36;;;;;;;4.10;3.05;;;;;;;;;;4836994;29;20521;-75
2023/07/09 15:16:09;;;;;;;4.28;2.25;;;;;;;;;;4837066;29;20529;-75
2023/07/09 15:18:39;;;;;;;4.97;2.70;;;;;;;;;;4837688;29;20056;-75
2023/07/09 15:21:13;;;;;;;4.72;3.33;;;;;;;;;;4836538;29;20061;-74
2023/07/09 15:23:47;;;;;;;5.75;3.08;;;;;;;;;;4836272;29;20065;-74
2023/07/09 15:26:17;;;;;;;4.60;2.65;;;;;;;;;;4837103;29;20046;-74